createdAt,value
2022-12-17T00:00:32.704Z,65.93
2022-12-17T00:01:32.836Z,65.93
2022-12-17T00:02:33.125Z,65.93
2022-12-17T00:03:33.430Z,65.93
2022-12-17T00:04:33.417Z,65.93
2022-12-17T00:05:33.547Z,66.14
2022-12-17T00:06:33.726Z,66.14
2022-12-17T00:07:33.904Z,66.24
2022-12-17T00:08:34.091Z,66.35
2022-12-17T00:09:34.275Z,66.35
2022-12-17T00:10:34.475Z,66.35
2022-12-17T00:11:34.644Z,66.45
2022-12-17T00:12:34.830Z,66.45
2022-12-17T00:13:35.396Z,66.56
2022-12-17T00:14:35.194Z,66.56
2022-12-17T00:15:35.353Z,66.56
2022-12-17T00:16:35.611Z,66.56
2022-12-17T00:17:35.664Z,66.77
2022-12-17T00:18:35.852Z,66.77
2022-12-17T00:19:36.042Z,66.87
2022-12-17T00:20:36.202Z,66.77
2022-12-17T00:21:36.382Z,66.87
2022-12-17T00:22:36.583Z,66.87
2022-12-17T00:23:37.255Z,66.87
2022-12-17T00:24:36.903Z,66.77
2022-12-17T00:25:37.094Z,66.66
2022-12-17T00:26:39.109Z,66.56
2022-12-17T00:27:37.466Z,66.77
2022-12-17T00:28:37.662Z,66.87
2022-12-17T00:29:37.822Z,66.77
2022-12-17T00:30:37.972Z,66.87
2022-12-17T00:31:38.224Z,66.87
2022-12-17T00:32:38.369Z,66.77
2022-12-17T00:33:38.815Z,66.77
2022-12-17T00:34:38.711Z,66.77
2022-12-17T00:35:38.859Z,66.66
2022-12-17T00:36:39.031Z,66.56
2022-12-17T00:37:39.201Z,66.56
2022-12-17T00:38:39.388Z,66.56
2022-12-17T00:39:39.582Z,66.56
2022-12-17T00:40:39.760Z,66.66
2022-12-17T00:41:39.939Z,66.66
2022-12-17T00:42:40.129Z,66.87
2022-12-17T00:43:40.360Z,66.87
2022-12-17T00:44:40.492Z,66.97
2022-12-17T00:45:40.639Z,67.08
2022-12-17T00:46:40.885Z,67.18
2022-12-17T00:47:40.988Z,67.29
2022-12-17T00:48:41.199Z,67.18
2022-12-17T00:49:41.348Z,67.29
2022-12-17T00:50:41.537Z,67.42
2022-12-17T00:51:41.717Z,67.52
2022-12-17T00:52:41.897Z,67.52
2022-12-17T00:53:42.079Z,67.39
2022-12-17T00:54:42.278Z,67.52
2022-12-17T00:55:42.435Z,67.52
2022-12-17T00:56:42.617Z,67.52
2022-12-17T00:57:42.756Z,67.52
2022-12-17T00:58:42.946Z,67.63
2022-12-17T00:59:43.141Z,67.63
2022-12-17T01:00:43.337Z,67.83
2022-12-17T01:01:43.617Z,67.83
2022-12-17T01:02:43.901Z,67.83
2022-12-17T01:03:43.785Z,67.60
2022-12-17T01:04:44.015Z,67.60
2022-12-17T01:05:44.128Z,67.39
2022-12-17T01:06:44.308Z,67.39
2022-12-17T01:07:44.484Z,67.39
2022-12-17T01:08:44.665Z,67.39
2022-12-17T01:09:44.865Z,67.29
2022-12-17T01:10:45.026Z,67.18
2022-12-17T01:11:45.176Z,67.08
2022-12-17T01:12:45.355Z,67.08
2022-12-17T01:13:45.539Z,67.08
2022-12-17T01:14:45.734Z,67.29
2022-12-17T01:15:45.884Z,67.29
2022-12-17T01:16:46.138Z,67.39
2022-12-17T01:17:46.252Z,67.39
2022-12-17T01:18:46.453Z,67.29
2022-12-17T01:19:46.614Z,67.18
2022-12-17T01:20:46.763Z,67.18
2022-12-17T01:21:46.946Z,67.29
2022-12-17T01:22:47.124Z,67.29
2022-12-17T01:23:47.313Z,67.18
2022-12-17T01:24:47.516Z,67.18
2022-12-17T01:25:47.670Z,66.94
2022-12-17T01:26:47.850Z,66.97
2022-12-17T01:27:48.035Z,67.08
2022-12-17T01:28:48.219Z,67.08
2022-12-17T01:29:48.413Z,67.08
2022-12-17T01:30:48.562Z,66.97
2022-12-17T01:31:48.816Z,66.97
2022-12-17T01:32:48.919Z,66.97
2022-12-17T01:33:49.102Z,66.87
2022-12-17T01:34:49.299Z,66.87
2022-12-17T01:35:49.450Z,66.87
2022-12-17T01:36:49.631Z,66.97
2022-12-17T01:37:49.819Z,67.08
2022-12-17T01:38:50.001Z,67.08
2022-12-17T01:39:50.189Z,67.32
2022-12-17T01:40:50.345Z,67.63
2022-12-17T01:41:50.528Z,67.73
2022-12-17T01:42:50.701Z,67.83
2022-12-17T01:43:50.893Z,68.04
2022-12-17T01:44:51.071Z,67.94
2022-12-17T01:45:51.292Z,67.94
2022-12-17T01:46:51.433Z,67.94
2022-12-17T01:47:51.609Z,67.94
2022-12-17T01:48:51.790Z,67.83
2022-12-17T01:49:51.990Z,67.80
2022-12-17T01:50:52.128Z,67.49
2022-12-17T01:51:52.319Z,67.83
2022-12-17T01:52:52.506Z,68.04
2022-12-17T01:53:52.712Z,67.94
2022-12-17T01:54:52.858Z,67.94
2022-12-17T01:55:53.038Z,67.91
2022-12-17T01:56:53.220Z,67.80
2022-12-17T01:57:53.407Z,67.70
2022-12-17T01:58:53.586Z,67.80
2022-12-17T01:59:53.785Z,67.70
2022-12-17T02:00:54.011Z,67.80
2022-12-17T02:01:54.363Z,67.80
2022-12-17T02:02:54.440Z,67.70
2022-12-17T02:03:54.494Z,67.70
2022-12-17T02:04:54.669Z,67.70
2022-12-17T02:05:54.846Z,67.70
2022-12-17T02:06:55.016Z,67.83
2022-12-17T02:07:55.233Z,67.80
2022-12-17T02:08:55.335Z,67.94
2022-12-17T02:09:55.573Z,68.04
2022-12-17T02:10:56.562Z,68.04
2022-12-17T02:11:55.875Z,67.94
2022-12-17T02:12:56.064Z,67.94
2022-12-17T02:13:56.234Z,67.83
2022-12-17T02:14:56.446Z,67.83
2022-12-17T02:15:56.566Z,67.83
2022-12-17T02:16:56.776Z,67.83
2022-12-17T02:17:56.925Z,67.83
2022-12-17T02:18:57.104Z,68.15
2022-12-17T02:19:57.284Z,68.25
2022-12-17T02:20:57.505Z,68.15
2022-12-17T02:21:57.603Z,68.25
2022-12-17T02:22:57.771Z,68.15
2022-12-17T02:23:57.954Z,68.15
2022-12-17T02:24:58.118Z,68.15
2022-12-17T02:25:58.283Z,68.15
2022-12-17T02:26:58.466Z,68.04
2022-12-17T02:27:58.642Z,67.94
2022-12-17T02:28:58.822Z,67.83
2022-12-17T02:29:58.991Z,67.83
2022-12-17T02:30:59.152Z,67.83
2022-12-17T02:31:59.389Z,67.73
2022-12-17T02:32:59.491Z,67.63
2022-12-17T02:33:59.671Z,67.73
2022-12-17T02:34:59.832Z,67.83
2022-12-17T02:36:00.003Z,67.73
2022-12-17T02:37:00.161Z,67.94
2022-12-17T02:38:00.370Z,67.83
2022-12-17T02:39:00.510Z,67.83
2022-12-17T02:40:00.682Z,67.83
2022-12-17T02:41:00.844Z,67.73
2022-12-17T02:42:01.010Z,67.73
2022-12-17T02:43:01.169Z,67.73
2022-12-17T02:44:01.360Z,67.63
2022-12-17T02:45:01.519Z,67.63
2022-12-17T02:46:01.798Z,67.52
2022-12-17T02:47:01.840Z,67.52
2022-12-17T02:48:02.019Z,67.42
2022-12-17T02:49:02.199Z,67.52
2022-12-17T02:50:02.370Z,67.63
2022-12-17T02:51:02.569Z,67.52
2022-12-17T02:52:02.749Z,67.63
2022-12-17T02:53:02.927Z,67.63
2022-12-17T02:54:03.079Z,67.63
2022-12-17T02:55:03.258Z,67.63
2022-12-17T02:56:03.450Z,67.63
2022-12-17T02:57:03.578Z,67.52
2022-12-17T02:58:03.757Z,67.76
2022-12-17T02:59:03.928Z,67.86
2022-12-17T03:00:04.108Z,67.97
2022-12-17T03:01:04.319Z,68.07
2022-12-17T03:02:04.628Z,68.07
2022-12-17T03:03:04.649Z,67.97
2022-12-17T03:04:04.809Z,67.97
2022-12-17T03:05:21.387Z,68.10
2022-12-17T03:06:06.179Z,68.21
2022-12-17T03:07:05.369Z,68.21
2022-12-17T03:08:05.497Z,68.10
2022-12-17T03:09:05.658Z,68.10
2022-12-17T03:10:05.826Z,68.28
2022-12-17T03:11:06.078Z,68.07
2022-12-17T03:12:06.187Z,68.07
2022-12-17T03:13:06.346Z,68.07
2022-12-17T03:14:06.517Z,67.97
2022-12-17T03:15:06.686Z,67.97
2022-12-17T03:16:06.874Z,67.86
2022-12-17T03:17:07.130Z,67.86
2022-12-17T03:18:07.206Z,67.97
2022-12-17T03:19:07.375Z,67.76
2022-12-17T03:20:07.547Z,67.86
2022-12-17T03:21:07.721Z,67.86
2022-12-17T03:22:07.885Z,67.97
2022-12-17T03:23:08.056Z,68.07
2022-12-17T03:24:08.245Z,67.97
2022-12-17T03:25:08.406Z,67.97
2022-12-17T03:26:08.614Z,68.07
2022-12-17T03:27:08.753Z,68.07
2022-12-17T03:28:08.943Z,67.97
2022-12-17T03:29:09.115Z,68.18
2022-12-17T03:30:09.281Z,67.97
2022-12-17T03:31:09.532Z,67.76
2022-12-17T03:32:09.652Z,67.66
2022-12-17T03:33:09.817Z,67.97
2022-12-17T03:34:09.983Z,67.86
2022-12-17T03:35:10.162Z,67.86
2022-12-17T03:36:10.343Z,67.86
2022-12-17T03:37:10.521Z,67.69
2022-12-17T03:38:10.710Z,67.90
2022-12-17T03:39:10.871Z,67.79
2022-12-17T03:40:11.059Z,67.79
2022-12-17T03:41:11.234Z,67.82
2022-12-17T03:42:11.411Z,68.03
2022-12-17T03:43:11.572Z,68.13
2022-12-17T03:44:11.749Z,68.35
2022-12-17T03:45:11.900Z,68.24
2022-12-17T03:46:12.127Z,68.03
2022-12-17T03:47:12.231Z,68.13
2022-12-17T03:48:12.400Z,68.13
2022-12-17T03:49:12.570Z,68.03
2022-12-17T03:50:12.739Z,68.24
2022-12-17T03:51:12.919Z,68.13
2022-12-17T03:52:13.100Z,68.13
2022-12-17T03:53:13.274Z,68.35
2022-12-17T03:54:13.428Z,68.45
2022-12-17T03:55:13.590Z,68.35
2022-12-17T03:56:13.801Z,68.24
2022-12-17T03:57:16.230Z,68.13
2022-12-17T03:58:14.158Z,67.93
2022-12-17T03:59:14.289Z,67.85
2022-12-17T04:00:14.459Z,67.96
2022-12-17T04:01:14.818Z,67.96
2022-12-17T04:02:15.012Z,68.17
2022-12-17T04:03:15.032Z,68.17
2022-12-17T04:04:15.117Z,68.17
2022-12-17T04:05:20.102Z,68.27
2022-12-17T04:06:16.498Z,68.38
2022-12-17T04:07:15.656Z,68.48
2022-12-17T04:08:15.827Z,68.48
2022-12-17T04:09:15.998Z,68.51
2022-12-17T04:10:16.156Z,68.72
2022-12-17T04:11:16.355Z,68.82
2022-12-17T04:12:16.495Z,69.13
2022-12-17T04:13:16.665Z,69.24
2022-12-17T04:14:16.879Z,69.24
2022-12-17T04:15:16.995Z,69.21
2022-12-17T04:16:17.282Z,69.21
2022-12-17T04:17:17.341Z,69.10
2022-12-17T04:18:17.494Z,69.10
2022-12-17T04:19:17.675Z,69.03
2022-12-17T04:20:17.847Z,69.13
2022-12-17T04:21:18.056Z,69.13
2022-12-17T04:22:18.164Z,69.13
2022-12-17T04:23:18.333Z,69.13
2022-12-17T04:24:18.494Z,69.03
2022-12-17T04:25:18.673Z,69.03
2022-12-17T04:26:18.843Z,69.13
2022-12-17T04:27:19.014Z,69.13
2022-12-17T04:28:19.192Z,69.13
2022-12-17T04:29:19.361Z,69.03
2022-12-17T04:30:19.523Z,69.03
2022-12-17T04:31:19.761Z,68.93
2022-12-17T04:32:19.866Z,68.93
2022-12-17T04:33:20.063Z,69.00
2022-12-17T04:34:20.194Z,69.00
2022-12-17T04:35:20.371Z,68.90
2022-12-17T04:36:20.532Z,68.90
2022-12-17T04:37:20.700Z,69.00
2022-12-17T04:38:20.912Z,69.00
2022-12-17T04:39:21.042Z,69.00
2022-12-17T04:40:21.210Z,68.90
2022-12-17T04:41:21.403Z,68.79
2022-12-17T04:42:21.569Z,68.79
2022-12-17T04:43:21.758Z,68.79
2022-12-17T04:44:21.918Z,68.79
2022-12-17T04:45:22.069Z,68.69
2022-12-17T04:46:22.305Z,68.59
2022-12-17T04:47:22.442Z,68.59
2022-12-17T04:48:22.610Z,68.69
2022-12-17T04:49:22.781Z,68.69
2022-12-17T04:50:22.956Z,68.59
2022-12-17T04:51:23.139Z,68.69
2022-12-17T04:52:23.300Z,68.69
2022-12-17T04:53:23.491Z,69.10
2022-12-17T04:54:23.649Z,69.10
2022-12-17T04:55:23.820Z,69.10
2022-12-17T04:56:24.018Z,68.90
2022-12-17T04:57:24.149Z,69.00
2022-12-17T04:58:24.328Z,69.00
2022-12-17T04:59:24.498Z,69.00
2022-12-17T05:00:24.667Z,69.00
2022-12-17T05:01:24.988Z,69.00
2022-12-17T05:02:25.096Z,69.10
2022-12-17T05:03:25.257Z,69.21
2022-12-17T05:04:25.366Z,68.97
2022-12-17T05:05:25.527Z,68.97
2022-12-17T05:06:25.709Z,68.87
2022-12-17T05:07:25.889Z,68.87
2022-12-17T05:08:26.065Z,68.87
2022-12-17T05:09:26.216Z,68.97
2022-12-17T05:10:26.396Z,68.76
2022-12-17T05:11:26.575Z,68.87
2022-12-17T05:12:26.750Z,68.87
2022-12-17T05:13:26.947Z,68.97
2022-12-17T05:14:27.085Z,68.97
2022-12-17T05:15:27.268Z,68.87
2022-12-17T05:16:27.482Z,68.73
2022-12-17T05:17:27.622Z,68.87
2022-12-17T05:18:27.796Z,68.73
2022-12-17T05:19:27.963Z,68.63
2022-12-17T05:20:28.133Z,68.32
2022-12-17T05:21:33.216Z,68.32
2022-12-17T05:22:29.495Z,68.42
2022-12-17T05:23:28.671Z,68.52
2022-12-17T05:24:28.852Z,68.52
2022-12-17T05:25:29.024Z,68.73
2022-12-17T05:26:29.193Z,68.84
2022-12-17T05:27:29.373Z,68.73
2022-12-17T05:28:29.542Z,68.84
2022-12-17T05:29:29.726Z,68.73
2022-12-17T05:30:29.898Z,68.73
2022-12-17T05:31:30.112Z,68.63
2022-12-17T05:32:30.212Z,68.52
2022-12-17T05:33:30.380Z,68.42
2022-12-17T05:34:30.543Z,68.42
2022-12-17T05:35:30.703Z,68.63
2022-12-17T05:36:30.883Z,68.73
2022-12-17T05:37:31.052Z,68.55
2022-12-17T05:38:31.210Z,68.76
2022-12-17T05:39:31.382Z,68.87
2022-12-17T05:40:31.551Z,69.07
2022-12-17T05:41:31.750Z,69.04
2022-12-17T05:42:31.888Z,68.94
2022-12-17T05:43:32.063Z,68.84
2022-12-17T05:44:32.219Z,68.73
2022-12-17T05:45:32.388Z,68.73
2022-12-17T05:46:32.635Z,68.52
2022-12-17T05:47:32.740Z,68.42
2022-12-17T05:48:32.899Z,68.63
2022-12-17T05:49:33.069Z,68.73
2022-12-17T05:50:33.249Z,68.73
2022-12-17T05:51:38.336Z,68.63
2022-12-17T05:52:34.596Z,68.42
2022-12-17T05:53:34.160Z,68.52
2022-12-17T05:54:33.908Z,68.52
2022-12-17T05:55:34.089Z,68.42
2022-12-17T05:56:34.261Z,68.42
2022-12-17T05:57:34.427Z,68.42
2022-12-17T05:58:34.615Z,68.42
2022-12-17T05:59:34.761Z,68.52
2022-12-17T06:00:34.998Z,68.63
2022-12-17T06:01:35.159Z,68.63
2022-12-17T06:02:35.293Z,68.73
2022-12-17T06:03:35.923Z,68.63
2022-12-17T06:04:35.587Z,68.63
2022-12-17T06:05:35.757Z,68.63
2022-12-17T06:06:35.937Z,68.63
2022-12-17T06:07:36.108Z,68.63
2022-12-17T06:08:36.279Z,68.63
2022-12-17T06:09:36.435Z,68.73
2022-12-17T06:10:36.604Z,68.52
2022-12-17T06:11:36.786Z,68.52
2022-12-17T06:12:36.955Z,68.63
2022-12-17T06:13:37.510Z,68.52
2022-12-17T06:14:37.294Z,68.52
2022-12-17T06:15:37.455Z,68.28
2022-12-17T06:16:37.677Z,68.28
2022-12-17T06:17:37.795Z,68.28
2022-12-17T06:18:37.969Z,68.28
2022-12-17T06:19:38.143Z,67.97
2022-12-17T06:20:38.304Z,67.86
2022-12-17T06:21:38.484Z,67.86
2022-12-17T06:22:38.654Z,67.97
2022-12-17T06:23:39.102Z,67.76
2022-12-17T06:24:42.749Z,67.63
2022-12-17T06:25:40.183Z,67.76
2022-12-17T06:26:39.354Z,67.63
2022-12-17T06:27:39.525Z,67.73
2022-12-17T06:28:39.684Z,67.73
2022-12-17T06:29:39.854Z,67.73
2022-12-17T06:30:40.034Z,67.52
2022-12-17T06:31:40.255Z,67.52
2022-12-17T06:32:40.371Z,67.32
2022-12-17T06:33:40.541Z,67.32
2022-12-17T06:34:40.719Z,67.21
2022-12-17T06:35:40.899Z,67.42
2022-12-17T06:36:41.092Z,67.21
2022-12-17T06:37:41.274Z,67.00
2022-12-17T06:38:41.416Z,67.00
2022-12-17T06:39:41.610Z,67.21
2022-12-17T06:40:41.751Z,67.21
2022-12-17T06:41:41.930Z,67.32
2022-12-17T06:42:42.090Z,67.32
2022-12-17T06:43:42.260Z,67.11
2022-12-17T06:44:42.427Z,67.32
2022-12-17T06:45:42.620Z,67.21
2022-12-17T06:46:42.860Z,67.21
2022-12-17T06:47:42.966Z,67.08
2022-12-17T06:48:43.102Z,66.97
2022-12-17T06:49:43.291Z,67.08
2022-12-17T06:50:43.448Z,66.77
2022-12-17T06:51:43.629Z,66.77
2022-12-17T06:52:43.769Z,66.45
2022-12-17T06:53:43.949Z,66.77
2022-12-17T06:54:44.114Z,66.87
2022-12-17T06:55:44.293Z,66.66
2022-12-17T06:56:44.455Z,66.56
2022-12-17T06:57:50.044Z,66.45
2022-12-17T06:58:45.777Z,66.56
2022-12-17T06:59:44.976Z,66.66
2022-12-17T07:00:45.180Z,66.66
2022-12-17T07:01:45.500Z,66.45
2022-12-17T07:02:45.632Z,66.35
2022-12-17T07:03:45.700Z,66.45
2022-12-17T07:04:45.866Z,66.45
2022-12-17T07:05:46.037Z,66.45
2022-12-17T07:06:46.216Z,66.56
2022-12-17T07:07:46.384Z,66.66
2022-12-17T07:08:46.560Z,66.56
2022-12-17T07:09:46.710Z,66.66
2022-12-17T07:10:46.883Z,66.35
2022-12-17T07:11:47.118Z,66.48
2022-12-17T07:12:47.235Z,66.59
2022-12-17T07:13:47.406Z,66.59
2022-12-17T07:14:47.577Z,66.66
2022-12-17T07:15:47.745Z,66.27
2022-12-17T07:16:48.005Z,66.48
2022-12-17T07:17:48.105Z,66.59
2022-12-17T07:18:48.262Z,66.56
2022-12-17T07:19:48.459Z,66.45
2022-12-17T07:20:48.604Z,66.35
2022-12-17T07:21:48.813Z,66.14
2022-12-17T07:22:48.964Z,66.14
2022-12-17T07:23:49.153Z,66.24
2022-12-17T07:24:49.315Z,66.24
2022-12-17T07:25:49.511Z,66.14
2022-12-17T07:26:49.701Z,66.24
2022-12-17T07:27:49.834Z,65.83
2022-12-17T07:28:49.993Z,65.93
2022-12-17T07:29:50.174Z,65.83
2022-12-17T07:30:55.645Z,65.83
2022-12-17T07:31:51.582Z,65.93
2022-12-17T07:32:50.660Z,65.93
2022-12-17T07:33:50.833Z,66.03
2022-12-17T07:34:51.012Z,65.90
2022-12-17T07:35:51.183Z,65.83
2022-12-17T07:36:51.372Z,65.72
2022-12-17T07:37:51.513Z,65.59
2022-12-17T07:38:51.682Z,65.80
2022-12-17T07:39:51.850Z,65.80
2022-12-17T07:40:52.012Z,65.69
2022-12-17T07:41:52.232Z,65.69
2022-12-17T07:42:52.351Z,65.80
2022-12-17T07:43:53.391Z,65.80
2022-12-17T07:44:52.677Z,65.80
2022-12-17T07:45:52.883Z,65.69
2022-12-17T07:46:53.030Z,65.69
2022-12-17T07:47:53.199Z,65.48
2022-12-17T07:48:53.361Z,65.38
2022-12-17T07:49:53.530Z,65.48
2022-12-17T07:50:53.697Z,65.48
2022-12-17T07:51:53.941Z,65.48
2022-12-17T07:52:54.039Z,65.38
2022-12-17T07:53:54.212Z,65.48
2022-12-17T07:54:54.379Z,65.17
2022-12-17T07:55:54.565Z,64.97
2022-12-17T07:56:54.728Z,64.65
2022-12-17T07:57:54.906Z,64.65
2022-12-17T07:58:55.056Z,64.52
2022-12-17T07:59:55.231Z,64.62
2022-12-17T08:00:55.396Z,64.52
2022-12-17T08:01:55.753Z,64.31
2022-12-17T08:02:55.853Z,64.62
2022-12-17T08:03:55.897Z,64.73
2022-12-17T08:04:56.058Z,64.73
2022-12-17T08:05:56.225Z,64.83
2022-12-17T08:07:01.653Z,64.83
2022-12-17T08:07:57.564Z,64.73
2022-12-17T08:08:56.727Z,64.42
2022-12-17T08:09:56.909Z,64.21
2022-12-17T08:10:57.056Z,64.21
2022-12-17T08:11:57.251Z,64.31
2022-12-17T08:12:57.406Z,64.21
2022-12-17T08:13:57.606Z,64.42
2022-12-17T08:14:57.746Z,64.62
2022-12-17T08:15:57.928Z,64.21
2022-12-17T08:16:58.184Z,64.42
2022-12-17T08:17:58.259Z,64.42
2022-12-17T08:18:58.426Z,64.24
2022-12-17T08:19:58.622Z,64.55
2022-12-17T08:20:58.796Z,64.55
2022-12-17T08:21:58.990Z,64.55
2022-12-17T08:22:59.203Z,64.58
2022-12-17T08:23:59.347Z,64.79
2022-12-17T08:24:59.515Z,65.00
2022-12-17T08:25:59.694Z,65.20
2022-12-17T08:26:59.896Z,65.00
2022-12-17T08:28:00.049Z,64.89
2022-12-17T08:29:00.233Z,64.89
2022-12-17T08:30:00.430Z,64.79
2022-12-17T08:31:00.640Z,65.10
2022-12-17T08:32:00.973Z,65.20
2022-12-17T08:33:00.942Z,65.20
2022-12-17T08:34:06.257Z,65.38
2022-12-17T08:35:02.332Z,65.07
2022-12-17T08:36:01.472Z,64.97
2022-12-17T08:37:01.664Z,64.86
2022-12-17T08:38:01.855Z,64.45
2022-12-17T08:39:02.059Z,64.76
2022-12-17T08:40:02.215Z,65.07
2022-12-17T08:41:02.464Z,64.86
2022-12-17T08:42:04.525Z,64.86
2022-12-17T08:43:02.711Z,64.86
2022-12-17T08:44:02.874Z,64.55
2022-12-17T08:45:03.048Z,64.34
2022-12-17T08:46:03.255Z,64.34
2022-12-17T08:47:03.389Z,64.31
2022-12-17T08:48:04.261Z,64.11
2022-12-17T08:49:03.725Z,64.31
2022-12-17T08:50:03.890Z,64.21
2022-12-17T08:51:04.059Z,64.31
2022-12-17T08:52:04.243Z,64.52
2022-12-17T08:53:04.400Z,64.31
2022-12-17T08:54:04.570Z,64.00
2022-12-17T08:55:04.742Z,64.11
2022-12-17T08:56:04.912Z,64.21
2022-12-17T08:57:05.098Z,64.00
2022-12-17T08:58:05.249Z,63.97
2022-12-17T08:59:05.428Z,63.66
2022-12-17T09:00:05.598Z,63.66
2022-12-17T09:01:05.798Z,63.87
2022-12-17T09:02:06.204Z,63.76
2022-12-17T09:03:06.208Z,63.97
2022-12-17T09:04:06.309Z,63.66
2022-12-17T09:05:06.478Z,63.87
2022-12-17T09:06:06.650Z,63.66
2022-12-17T09:07:06.828Z,63.97
2022-12-17T09:08:07.009Z,63.76
2022-12-17T09:09:07.224Z,64.18
2022-12-17T09:10:07.357Z,63.87
2022-12-17T09:11:07.527Z,63.97
2022-12-17T09:12:07.716Z,63.66
2022-12-17T09:13:07.965Z,63.66
2022-12-17T09:14:08.046Z,63.87
2022-12-17T09:15:08.218Z,63.73
2022-12-17T09:16:08.379Z,63.42
2022-12-17T09:17:08.653Z,63.32
2022-12-17T09:18:08.712Z,63.21
2022-12-17T09:19:08.876Z,63.42
2022-12-17T09:20:09.056Z,63.21
2022-12-17T09:21:09.216Z,63.21
2022-12-17T09:22:09.398Z,63.11
2022-12-17T09:23:09.567Z,63.42
2022-12-17T09:24:09.757Z,63.11
2022-12-17T09:25:09.956Z,62.90
2022-12-17T09:26:10.096Z,62.80
2022-12-17T09:27:10.287Z,62.80
2022-12-17T09:28:10.445Z,62.80
2022-12-17T09:29:10.635Z,62.90
2022-12-17T09:30:10.786Z,62.70
2022-12-17T09:31:10.992Z,62.57
2022-12-17T09:32:11.126Z,62.57
2022-12-17T09:33:11.295Z,62.67
2022-12-17T09:34:11.473Z,62.57
2022-12-17T09:35:11.643Z,62.67
2022-12-17T09:36:11.830Z,62.36
2022-12-17T09:37:12.002Z,62.36
2022-12-17T09:38:12.176Z,62.36
2022-12-17T09:39:12.348Z,62.57
2022-12-17T09:40:12.514Z,62.88
2022-12-17T09:41:12.683Z,62.67
2022-12-17T09:42:12.872Z,62.67
2022-12-17T09:43:13.060Z,62.57
2022-12-17T09:44:13.232Z,62.67
2022-12-17T09:45:13.395Z,62.15
2022-12-17T09:46:13.609Z,62.05
2022-12-17T09:47:13.761Z,62.07
2022-12-17T09:48:13.923Z,62.38
2022-12-17T09:49:14.113Z,62.46
2022-12-17T09:50:14.269Z,61.94
2022-12-17T09:51:14.434Z,61.63
2022-12-17T09:52:14.610Z,61.84
2022-12-17T09:53:14.789Z,61.74
2022-12-17T09:54:14.940Z,61.84
2022-12-17T09:55:15.109Z,62.05
2022-12-17T09:56:15.291Z,62.15
2022-12-17T09:57:15.479Z,62.15
2022-12-17T09:58:15.641Z,62.36
2022-12-17T09:59:15.809Z,62.26
2022-12-17T10:00:15.979Z,61.94
2022-12-17T10:01:16.199Z,61.84
2022-12-17T10:02:16.621Z,61.74
2022-12-17T10:03:16.581Z,61.43
2022-12-17T10:04:16.670Z,61.11
2022-12-17T10:05:16.848Z,61.32
2022-12-17T10:06:22.324Z,61.01
2022-12-17T10:07:18.180Z,61.32
2022-12-17T10:08:17.328Z,61.53
2022-12-17T10:09:17.488Z,61.32
2022-12-17T10:10:17.727Z,61.74
2022-12-17T10:11:17.828Z,61.53
2022-12-17T10:12:18.008Z,61.63
2022-12-17T10:13:18.196Z,61.53
2022-12-17T10:14:18.357Z,61.50
2022-12-17T10:15:18.527Z,61.43
2022-12-17T10:16:18.726Z,61.22
2022-12-17T10:17:18.882Z,61.32
2022-12-17T10:18:19.056Z,61.43
2022-12-17T10:19:19.216Z,61.11
2022-12-17T10:20:19.386Z,61.22
2022-12-17T10:21:19.557Z,61.11
2022-12-17T10:22:19.728Z,60.80
2022-12-17T10:23:19.916Z,61.32
2022-12-17T10:24:20.076Z,61.63
2022-12-17T10:25:20.248Z,61.74
2022-12-17T10:26:20.405Z,61.94
2022-12-17T10:27:20.575Z,61.74
2022-12-17T10:28:20.815Z,61.63
2022-12-17T10:29:20.940Z,61.43
2022-12-17T10:30:21.107Z,61.32
2022-12-17T10:31:21.360Z,61.43
2022-12-17T10:32:21.473Z,61.53
2022-12-17T10:33:21.647Z,61.43
2022-12-17T10:34:21.865Z,61.74
2022-12-17T10:35:22.011Z,61.94
2022-12-17T10:36:22.174Z,61.94
2022-12-17T10:37:22.403Z,61.94
2022-12-17T10:38:22.526Z,61.94
2022-12-17T10:39:22.713Z,61.84
2022-12-17T10:40:22.873Z,61.63
2022-12-17T10:41:23.044Z,61.74
2022-12-17T10:42:23.224Z,61.63
2022-12-17T10:43:23.411Z,61.19
2022-12-17T10:44:23.572Z,61.11
2022-12-17T10:45:23.754Z,61.11
2022-12-17T10:46:23.970Z,61.29
2022-12-17T10:47:24.103Z,61.22
2022-12-17T10:48:24.291Z,60.70
2022-12-17T10:49:24.456Z,61.08
2022-12-17T10:50:24.621Z,61.08
2022-12-17T10:51:24.794Z,61.08
2022-12-17T10:52:24.960Z,60.88
2022-12-17T10:53:25.143Z,60.91
2022-12-17T10:54:25.312Z,60.91
2022-12-17T10:55:25.481Z,61.01
2022-12-17T10:56:25.649Z,61.43
2022-12-17T10:57:25.814Z,61.63
2022-12-17T10:58:26.001Z,61.87
2022-12-17T10:59:26.171Z,62.05
2022-12-17T11:00:26.340Z,62.05
2022-12-17T11:01:26.631Z,62.15
2022-12-17T11:02:27.005Z,62.05
2022-12-17T11:03:26.904Z,62.26
2022-12-17T11:04:27.040Z,61.84
2022-12-17T11:05:27.210Z,62.05
2022-12-17T11:06:27.440Z,61.74
2022-12-17T11:07:27.579Z,61.94
2022-12-17T11:08:27.740Z,61.60
2022-12-17T11:09:27.910Z,61.40
2022-12-17T11:10:28.078Z,61.71
2022-12-17T11:11:28.269Z,61.29
2022-12-17T11:12:30.821Z,60.98
2022-12-17T11:13:28.610Z,60.67
2022-12-17T11:14:28.768Z,60.57
2022-12-17T11:15:28.947Z,60.88
2022-12-17T11:16:29.215Z,60.98
2022-12-17T11:17:29.299Z,60.70
2022-12-17T11:18:29.465Z,61.01
2022-12-17T11:19:29.654Z,61.22
2022-12-17T11:20:29.818Z,61.32
2022-12-17T11:21:29.977Z,61.11
2022-12-17T11:22:30.173Z,61.11
2022-12-17T11:23:30.327Z,61.14
2022-12-17T11:24:30.498Z,61.35
2022-12-17T11:25:30.668Z,61.55
2022-12-17T11:26:30.835Z,61.66
2022-12-17T11:27:31.020Z,62.00
2022-12-17T11:28:31.166Z,62.10
2022-12-17T11:29:31.336Z,62.00
2022-12-17T11:30:31.521Z,62.00
2022-12-17T11:31:31.732Z,61.79
2022-12-17T11:32:31.855Z,61.97
2022-12-17T11:33:32.031Z,61.66
2022-12-17T11:34:32.185Z,61.66
2022-12-17T11:35:32.355Z,61.66
2022-12-17T11:36:38.495Z,61.35
2022-12-17T11:37:33.716Z,61.55
2022-12-17T11:38:32.895Z,61.76
2022-12-17T11:39:33.079Z,61.55
2022-12-17T11:40:33.246Z,61.76
2022-12-17T11:41:33.414Z,61.55
2022-12-17T11:42:33.602Z,61.35
2022-12-17T11:43:33.783Z,61.45
2022-12-17T11:44:33.940Z,61.66
2022-12-17T11:45:34.113Z,61.35
2022-12-17T11:46:34.320Z,61.22
2022-12-17T11:47:34.462Z,61.22
2022-12-17T11:48:34.944Z,61.01
2022-12-17T11:49:34.812Z,60.91
2022-12-17T11:50:34.974Z,60.80
2022-12-17T11:51:35.143Z,60.80
2022-12-17T11:52:35.312Z,61.01
2022-12-17T11:53:35.493Z,61.01
2022-12-17T11:54:35.650Z,61.01
2022-12-17T11:55:35.812Z,61.01
2022-12-17T11:56:36.013Z,61.11
2022-12-17T11:57:36.172Z,61.22
2022-12-17T11:58:36.729Z,61.32
2022-12-17T11:59:36.529Z,61.43
2022-12-17T12:00:36.681Z,61.53
2022-12-17T12:01:36.898Z,61.43
2022-12-17T12:02:37.040Z,61.43
2022-12-17T12:03:37.304Z,61.11
2022-12-17T12:04:37.371Z,61.01
2022-12-17T12:05:37.540Z,61.22
2022-12-17T12:06:37.714Z,61.22
2022-12-17T12:07:37.879Z,60.91
2022-12-17T12:08:38.328Z,61.01
2022-12-17T12:09:38.321Z,61.22
2022-12-17T12:10:38.478Z,61.32
2022-12-17T12:11:38.592Z,61.43
2022-12-17T12:12:38.761Z,61.53
2022-12-17T12:13:38.998Z,61.55
2022-12-17T12:14:39.122Z,61.66
2022-12-17T12:15:39.290Z,61.76
2022-12-17T12:16:43.669Z,61.87
2022-12-17T12:17:39.638Z,62.07
2022-12-17T12:18:40.181Z,62.18
2022-12-17T12:19:39.993Z,62.21
2022-12-17T12:20:40.147Z,62.28
2022-12-17T12:21:40.318Z,62.28
2022-12-17T12:22:40.497Z,62.38
2022-12-17T12:23:40.677Z,62.49
2022-12-17T12:24:40.848Z,62.38
2022-12-17T12:25:41.017Z,62.07
2022-12-17T12:26:41.191Z,62.07
2022-12-17T12:27:43.012Z,62.28
2022-12-17T12:28:41.538Z,62.38
2022-12-17T12:29:41.708Z,62.18
2022-12-17T12:30:41.877Z,62.18
2022-12-17T12:31:42.070Z,62.07
2022-12-17T12:32:42.214Z,62.28
2022-12-17T12:33:42.638Z,62.07
2022-12-17T12:34:42.542Z,61.97
2022-12-17T12:35:42.708Z,62.07
2022-12-17T12:36:42.906Z,62.18
2022-12-17T12:37:43.066Z,62.07
2022-12-17T12:38:46.321Z,61.97
2022-12-17T12:39:43.408Z,61.87
2022-12-17T12:40:43.592Z,61.45
2022-12-17T12:41:43.777Z,61.87
2022-12-17T12:42:43.945Z,61.87
2022-12-17T12:43:44.146Z,61.97
2022-12-17T12:44:49.446Z,61.55
2022-12-17T12:45:45.516Z,61.97
2022-12-17T12:46:44.647Z,61.87
2022-12-17T12:47:44.804Z,61.97
2022-12-17T12:48:44.997Z,62.07
2022-12-17T12:49:45.155Z,62.07
2022-12-17T12:50:45.324Z,62.07
2022-12-17T12:51:45.497Z,62.18
2022-12-17T12:52:45.662Z,61.97
2022-12-17T12:53:45.834Z,61.76
2022-12-17T12:54:46.009Z,61.66